sensor_id;sensor_type;location;lat;lon;timestamp;pressure;altitude;pressure_sealevel;temperature;humidity
51781;BME280;37844;57.126;24.288;2022-10-17T00:01:22;101664.97;;;13.74;100.00
51781;BME280;37844;57.126;24.288;2022-10-17T00:03:47;101662.31;;;13.69;100.00
51781;BME280;37844;57.126;24.288;2022-10-17T00:06:14;101676.13;;;13.71;100.00
51781;BME280;37844;57.126;24.288;2022-10-17T00:08:40;101675.25;;;13.71;100.00
51781;BME280;37844;57.126;24.288;2022-10-17T00:11:12;101687.38;;;13.72;100.00
51781;BME280;37844;57.126;24.288;2022-10-17T00:13:37;101690.75;;;13.66;100.00
51781;BME280;37844;57.126;24.288;2022-10-17T00:16:03;101690.75;;;13.66;100.00
51781;BME280;37844;57.126;24.288;2022-10-17T00:18:29;101683.88;;;13.67;100.00
51781;BME280;37844;57.126;24.288;2022-10-17T00:20:55;101680.34;;;13.63;100.00
51781;BME280;37844;57.126;24.288;2022-10-17T00:23:20;101674.19;;;13.56;100.00
51781;BME280;37844;57.126;24.288;2022-10-17T00:25:45;101676.81;;;13.58;100.00
51781;BME280;37844;57.126;24.288;2022-10-17T00:28:12;101675.94;;;13.59;100.00
51781;BME280;37844;57.126;24.288;2022-10-17T00:30:39;101681.09;;;13.56;100.00
51781;BME280;37844;57.126;24.288;2022-10-17T00:33:05;101678.47;;;13.54;100.00
51781;BME280;37844;57.126;24.288;2022-10-17T00:35:31;101687.09;;;13.53;100.00
51781;BME280;37844;57.126;24.288;2022-10-17T00:37:57;101688.88;;;13.56;100.00
51781;BME280;37844;57.126;24.288;2022-10-17T00:40:22;101691.38;;;13.51;100.00
51781;BME280;37844;57.126;24.288;2022-10-17T00:42:48;101691.41;;;13.54;100.00
51781;BME280;37844;57.126;24.288;2022-10-17T00:45:27;101684.47;;;13.52;100.00
51781;BME280;37844;57.126;24.288;2022-10-17T00:47:57;101688.78;;;13.51;100.00
51781;BME280;37844;57.126;24.288;2022-10-17T00:50:24;101693.91;;;13.47;100.00
51781;BME280;37844;57.126;24.288;2022-10-17T00:52:50;101684.34;;;13.44;100.00
51781;BME280;37844;57.126;24.288;2022-10-17T00:55:22;101680.91;;;13.45;100.00
51781;BME280;37844;57.126;24.288;2022-10-17T00:57:49;101669.59;;;13.40;100.00
51781;BME280;37844;57.126;24.288;2022-10-17T01:00:16;101663.41;;;13.29;100.00
51781;BME280;37844;57.126;24.288;2022-10-17T01:02:43;101659.09;;;13.31;100.00
51781;BME280;37844;57.126;24.288;2022-10-17T01:05:09;101654.63;;;13.24;100.00
51781;BME280;37844;57.126;24.288;2022-10-17T01:07:37;101663.38;;;13.27;100.00
51781;BME280;37844;57.126;24.288;2022-10-17T01:10:04;101676.16;;;13.21;100.00
51781;BME280;37844;57.126;24.288;2022-10-17T01:18:23;101668.41;;;13.21;100.00
51781;BME280;37844;57.126;24.288;2022-10-17T01:20:59;101669.22;;;13.19;100.00
51781;BME280;37844;57.126;24.288;2022-10-17T01:23:58;101658.78;;;13.14;100.00
51781;BME280;37844;57.126;24.288;2022-10-17T01:32:46;101649.88;;;12.97;100.00
51781;BME280;37844;57.126;24.288;2022-10-17T01:42:58;101662.84;;;12.98;100.00
51781;BME280;37844;57.126;24.288;2022-10-17T01:45:33;101672.28;;;12.98;100.00
51781;BME280;37844;57.126;24.288;2022-10-17T01:48:06;101662.75;;;12.95;100.00
51781;BME280;37844;57.126;24.288;2022-10-17T01:50:37;101674.78;;;12.91;100.00
51781;BME280;37844;57.126;24.288;2022-10-17T01:53:09;101666.84;;;12.82;100.00
51781;BME280;37844;57.126;24.288;2022-10-17T01:55:40;101686.06;;;12.95;100.00
51781;BME280;37844;57.126;24.288;2022-10-17T02:00:41;101687.66;;;12.87;100.00
51781;BME280;37844;57.126;24.288;2022-10-17T02:03:12;101691.91;;;12.85;100.00
51781;BME280;37844;57.126;24.288;2022-10-17T02:05:41;101696.28;;;12.87;100.00
51781;BME280;37844;57.126;24.288;2022-10-17T02:08:07;101700.50;;;12.82;100.00
51781;BME280;37844;57.126;24.288;2022-10-17T02:11:00;101700.59;;;12.87;100.00
51781;BME280;37844;57.126;24.288;2022-10-17T02:30:02;101734.81;;;12.72;100.00
51781;BME280;37844;57.126;24.288;2022-10-17T02:35:24;101740.75;;;12.68;100.00
51781;BME280;37844;57.126;24.288;2022-10-17T02:37:52;101738.97;;;12.67;100.00
51781;BME280;37844;57.126;24.288;2022-10-17T02:40:20;101745.06;;;12.69;100.00
51781;BME280;37844;57.126;24.288;2022-10-17T02:42:48;101750.34;;;12.73;100.00
51781;BME280;37844;57.126;24.288;2022-10-17T02:45:30;101754.59;;;12.71;100.00
51781;BME280;37844;57.126;24.288;2022-10-17T02:48:27;101752.97;;;12.75;100.00
51781;BME280;37844;57.126;24.288;2022-10-17T02:54:00;101754.69;;;12.75;100.00
51781;BME280;37844;57.126;24.288;2022-10-17T02:56:32;101752.97;;;12.75;100.00
51781;BME280;37844;57.126;24.288;2022-10-17T02:59:02;101755.56;;;12.75;100.00
51781;BME280;37844;57.126;24.288;2022-10-17T03:01:29;101753.88;;;12.77;100.00
51781;BME280;37844;57.126;24.288;2022-10-17T03:04:10;101759.84;;;12.75;100.00
51781;BME280;37844;57.126;24.288;2022-10-17T03:06:36;101772.69;;;12.70;100.00
51781;BME280;37844;57.126;24.288;2022-10-17T03:09:02;101767.53;;;12.71;100.00
51781;BME280;37844;57.126;24.288;2022-10-17T03:11:28;101770.16;;;12.73;100.00
51781;BME280;37844;57.126;24.288;2022-10-17T03:13:53;101766.72;;;12.72;100.00
51781;BME280;37844;57.126;24.288;2022-10-17T03:16:19;101770.13;;;12.71;100.00
51781;BME280;37844;57.126;24.288;2022-10-17T03:18:44;101771.75;;;12.66;100.00
51781;BME280;37844;57.126;24.288;2022-10-17T03:21:10;101764.84;;;12.67;100.00
51781;BME280;37844;57.126;24.288;2022-10-17T03:23:35;101773.41;;;12.64;100.00
51781;BME280;37844;57.126;24.288;2022-10-17T03:26:05;101773.38;;;12.61;100.00
51781;BME280;37844;57.126;24.288;2022-10-17T03:28:31;101783.63;;;12.57;100.00
51781;BME280;37844;57.126;24.288;2022-10-17T03:30:56;101783.66;;;12.60;100.00
51781;BME280;37844;57.126;24.288;2022-10-17T03:33:21;101786.25;;;12.60;100.00
51781;BME280;37844;57.126;24.288;2022-10-17T03:35:47;101792.34;;;12.62;100.00
51781;BME280;37844;57.126;24.288;2022-10-17T03:38:12;101798.38;;;12.62;100.00
51781;BME280;37844;57.126;24.288;2022-10-17T03:40:38;101801.06;;;12.65;100.00
51781;BME280;37844;57.126;24.288;2022-10-17T03:43:03;101799.34;;;12.66;100.00
51781;BME280;37844;57.126;24.288;2022-10-17T03:45:29;101810.56;;;12.66;100.00
51781;BME280;37844;57.126;24.288;2022-10-17T03:47:54;101814.03;;;12.68;100.00
51781;BME280;37844;57.126;24.288;2022-10-17T03:50:19;101805.38;;;12.66;100.00
51781;BME280;37844;57.126;24.288;2022-10-17T03:52:46;101814.91;;;12.67;100.00
51781;BME280;37844;57.126;24.288;2022-10-17T03:55:12;101821.69;;;12.64;100.00
51781;BME280;37844;57.126;24.288;2022-10-17T03:57:38;101815.63;;;12.62;100.00
51781;BME280;37844;57.126;24.288;2022-10-17T04:00:04;101821.59;;;12.59;100.00
51781;BME280;37844;57.126;24.288;2022-10-17T04:02:30;101820.78;;;12.60;100.00
51781;BME280;37844;57.126;24.288;2022-10-17T04:04:55;101830.22;;;12.60;100.00
51781;BME280;37844;57.126;24.288;2022-10-17T04:07:21;101837.88;;;12.55;100.00
51781;BME280;37844;57.126;24.288;2022-10-17T04:09:46;101843.03;;;12.54;100.00
51781;BME280;37844;57.126;24.288;2022-10-17T04:12:12;101844.78;;;12.55;100.00
51781;BME280;37844;57.126;24.288;2022-10-17T04:14:37;101850.81;;;12.55;100.00
51781;BME280;37844;57.126;24.288;2022-10-17T04:17:03;101851.56;;;12.49;100.00
51781;BME280;37844;57.126;24.288;2022-10-17T04:19:28;101851.47;;;12.45;100.00
51781;BME280;37844;57.126;24.288;2022-10-17T04:21:54;101851.47;;;12.45;100.00
51781;BME280;37844;57.126;24.288;2022-10-17T04:24:19;101860.06;;;12.45;100.00
51781;BME280;37844;57.126;24.288;2022-10-17T04:26:45;101865.03;;;12.35;100.00
51781;BME280;37844;57.126;24.288;2022-10-17T04:29:13;101857.28;;;12.36;100.00
51781;BME280;37844;57.126;24.288;2022-10-17T04:31:39;101854.63;;;12.33;100.00
51781;BME280;37844;57.126;24.288;2022-10-17T04:34:04;101856.28;;;12.31;100.00
51781;BME280;37844;57.126;24.288;2022-10-17T04:36:30;101871.63;;;12.23;100.00
51781;BME280;37844;57.126;24.288;2022-10-17T04:38:55;101874.28;;;12.25;100.00
51781;BME280;37844;57.126;24.288;2022-10-17T04:41:21;101871.69;;;12.26;100.00
51781;BME280;37844;57.126;24.288;2022-10-17T04:43:46;101873.47;;;12.27;100.00
51781;BME280;37844;57.126;24.288;2022-10-17T04:46:13;101870.81;;;12.24;100.00
51781;BME280;37844;57.126;24.288;2022-10-17T04:48:39;101866.50;;;12.25;100.00
51781;BME280;37844;57.126;24.288;2022-10-17T04:51:10;101867.31;;;12.22;100.00
51781;BME280;37844;57.126;24.288;2022-10-17T04:53:37;101878.53;;;12.23;100.00
51781;BME280;37844;57.126;24.288;2022-10-17T04:56:29;101871.59;;;12.22;100.00
51781;BME280;37844;57.126;24.288;2022-10-17T04:58:54;101884.50;;;12.20;100.00
51781;BME280;37844;57.126;24.288;2022-10-17T05:01:21;101888.81;;;12.21;100.00
51781;BME280;37844;57.126;24.288;2022-10-17T05:03:47;101886.16;;;12.18;100.00
51781;BME280;37844;57.126;24.288;2022-10-17T05:06:23;101895.66;;;12.19;100.00
51781;BME280;37844;57.126;24.288;2022-10-17T05:08:49;101899.97;;;12.19;100.00
51781;BME280;37844;57.126;24.288;2022-10-17T05:13:42;101898.84;;;12.09;100.00
51781;BME280;37844;57.126;24.288;2022-10-17T05:16:07;101905.75;;;12.10;100.00
51781;BME280;37844;57.126;24.288;2022-10-17T05:18:33;101906.53;;;12.06;100.00
51781;BME280;37844;57.126;24.288;2022-10-17T05:20:58;101917.75;;;12.06;100.00
51781;BME280;37844;57.126;24.288;2022-10-17T05:23:24;101917.00;;;12.12;100.00
51781;BME280;37844;57.126;24.288;2022-10-17T05:25:55;101916.25;;;12.16;100.00
51781;BME280;37844;57.126;24.288;2022-10-17T05:28:21;101918.03;;;12.17;100.00
51781;BME280;37844;57.126;24.288;2022-10-17T05:30:47;101913.72;;;12.18;100.00
51781;BME280;37844;57.126;24.288;2022-10-17T05:33:13;101911.97;;;12.17;100.00
51781;BME280;37844;57.126;24.288;2022-10-17T05:35:38;101912.13;;;12.23;100.00
51781;BME280;37844;57.126;24.288;2022-10-17T05:38:04;101918.22;;;12.26;100.00
51781;BME280;37844;57.126;24.288;2022-10-17T05:40:29;101919.19;;;12.30;100.00
51781;BME280;37844;57.126;24.288;2022-10-17T05:42:54;101921.97;;;12.38;100.00
51781;BME280;37844;57.126;24.288;2022-10-17T05:45:20;101923.84;;;12.43;100.00
51781;BME280;37844;57.126;24.288;2022-10-17T05:47:45;101932.47;;;12.44;100.00
51781;BME280;37844;57.126;24.288;2022-10-17T05:50:11;101937.03;;;12.54;100.00
51781;BME280;37844;57.126;24.288;2022-10-17T05:52:36;101946.63;;;12.60;100.00
51781;BME280;37844;57.126;24.288;2022-10-17T05:55:03;101946.03;;;12.71;100.00
51781;BME280;37844;57.126;24.288;2022-10-17T05:57:29;101944.47;;;12.78;100.00
51781;BME280;37844;57.126;24.288;2022-10-17T05:59:54;101947.22;;;12.84;100.00
51781;BME280;37844;57.126;24.288;2022-10-17T06:02:20;101948.13;;;12.86;100.00
51781;BME280;37844;57.126;24.288;2022-10-17T06:04:45;101957.81;;;12.95;100.00
51781;BME280;37844;57.126;24.288;2022-10-17T06:07:13;101958.00;;;13.04;100.00
51781;BME280;37844;57.126;24.288;2022-10-17T06:09:38;101958.25;;;13.15;100.00
51781;BME280;37844;57.126;24.288;2022-10-17T06:12:05;101953.09;;;13.16;100.00
51781;BME280;37844;57.126;24.288;2022-10-17T06:14:30;101952.38;;;13.22;100.00
51781;BME280;37844;57.126;24.288;2022-10-17T06:16:55;101969.78;;;13.28;100.00
51781;BME280;37844;57.126;24.288;2022-10-17T06:19:21;101972.56;;;13.37;100.00
51781;BME280;37844;57.126;24.288;2022-10-17T06:21:46;101978.03;;;13.51;100.00
51781;BME280;37844;57.126;24.288;2022-10-17T06:24:12;101982.56;;;13.61;100.00
51781;BME280;37844;57.126;24.288;2022-10-17T06:26:37;101989.69;;;13.73;100.00
51781;BME280;37844;57.126;24.288;2022-10-17T06:29:03;101990.75;;;13.83;100.00
51781;BME280;37844;57.126;24.288;2022-10-17T06:31:28;101997.94;;;13.97;100.00
51781;BME280;37844;57.126;24.288;2022-10-17T06:33:54;102001.56;;;14.06;100.00
51781;BME280;37844;57.126;24.288;2022-10-17T06:36:19;102014.72;;;14.15;100.00
51781;BME280;37844;57.126;24.288;2022-10-17T06:38:44;102027.03;;;14.27;100.00
51781;BME280;37844;57.126;24.288;2022-10-17T06:41:12;102025.59;;;14.44;100.00
51781;BME280;37844;57.126;24.288;2022-10-17T06:43:40;102020.78;;;14.62;100.00
51781;BME280;37844;57.126;24.288;2022-10-17T06:46:07;102019.25;;;14.75;100.00
51781;BME280;37844;57.126;24.288;2022-10-17T06:48:33;102021.91;;;14.80;100.00
51781;BME280;37844;57.126;24.288;2022-10-17T06:51:00;102030.78;;;14.94;100.00
51781;BME280;37844;57.126;24.288;2022-10-17T06:53:27;102032.75;;;15.08;100.00
51781;BME280;37844;57.126;24.288;2022-10-17T06:55:53;102042.44;;;15.19;100.00
51781;BME280;37844;57.126;24.288;2022-10-17T06:58:19;102043.53;;;15.35;100.00
51781;BME280;37844;57.126;24.288;2022-10-17T07:00:45;102049.63;;;15.39;100.00
51781;BME280;37844;57.126;24.288;2022-10-17T07:03:10;102054.88;;;15.42;100.00
51781;BME280;37844;57.126;24.288;2022-10-17T07:05:36;102061.06;;;15.52;100.00
51781;BME280;37844;57.126;24.288;2022-10-17T07:08:03;102062.09;;;15.61;100.00
51781;BME280;37844;57.126;24.288;2022-10-17T07:10:29;102061.34;;;15.70;100.00
51781;BME280;37844;57.126;24.288;2022-10-17T07:12:54;102060.69;;;15.86;100.00
51781;BME280;37844;57.126;24.288;2022-10-17T07:15:20;102065.88;;;15.86;100.00
51781;BME280;37844;57.126;24.288;2022-10-17T07:17:48;102062.44;;;15.89;100.00
51781;BME280;37844;57.126;24.288;2022-10-17T07:20:16;102067.59;;;15.84;100.00
51781;BME280;37844;57.126;24.288;2022-10-17T07:22:42;102071.06;;;15.85;100.00
51781;BME280;37844;57.126;24.288;2022-10-17T07:25:07;102075.50;;;15.94;100.00
51781;BME280;37844;57.126;24.288;2022-10-17T07:27:33;102067.75;;;15.98;100.00
51781;BME280;37844;57.126;24.288;2022-10-17T07:29:58;102078.34;;;16.12;100.00
51781;BME280;37844;57.126;24.288;2022-10-17T07:32:24;102075.03;;;16.28;100.00
51781;BME280;37844;57.126;24.288;2022-10-17T07:34:49;102076.97;;;16.45;100.00
51781;BME280;37844;57.126;24.288;2022-10-17T07:37:15;102073.59;;;16.57;100.00
51781;BME280;37844;57.126;24.288;2022-10-17T07:39:40;102076.28;;;16.67;100.00
51781;BME280;37844;57.126;24.288;2022-10-17T07:42:06;102086.97;;;16.92;100.00
51781;BME280;37844;57.126;24.288;2022-10-17T07:44:32;102090.50;;;17.02;100.00
51781;BME280;37844;57.126;24.288;2022-10-17T07:46:57;102078.47;;;17.19;100.00
51781;BME280;37844;57.126;24.288;2022-10-17T07:49:23;102085.56;;;17.40;100.00
51781;BME280;37844;57.126;24.288;2022-10-17T07:51:48;102079.50;;;17.43;100.00
51781;BME280;37844;57.126;24.288;2022-10-17T07:54:14;102085.59;;;17.46;99.75
51781;BME280;37844;57.126;24.288;2022-10-17T07:56:39;102105.75;;;17.76;98.57
51781;BME280;37844;57.126;24.288;2022-10-17T07:59:04;102102.47;;;18.17;95.98
51781;BME280;37844;57.126;24.288;2022-10-17T08:01:30;102115.66;;;18.65;93.92
51781;BME280;37844;57.126;24.288;2022-10-17T08:03:55;102106.09;;;19.21;91.26
51781;BME280;37844;57.126;24.288;2022-10-17T08:06:21;102125.25;;;19.51;89.04
51781;BME280;37844;57.126;24.288;2022-10-17T08:08:46;102119.97;;;19.77;86.48
51781;BME280;37844;57.126;24.288;2022-10-17T08:11:13;102110.28;;;19.99;85.08
51781;BME280;37844;57.126;24.288;2022-10-17T08:13:40;102120.28;;;20.85;82.10
51781;BME280;37844;57.126;24.288;2022-10-17T08:16:09;102128.97;;;20.93;80.16
51781;BME280;37844;57.126;24.288;2022-10-17T08:18:35;102142.81;;;21.06;77.79
51781;BME280;37844;57.126;24.288;2022-10-17T08:21:04;102150.91;;;20.73;76.64
51781;BME280;37844;57.126;24.288;2022-10-17T08:23:33;102157.34;;;20.16;76.97
51781;BME280;37844;57.126;24.288;2022-10-17T08:26:03;102152.28;;;19.39;76.54
51781;BME280;37844;57.126;24.288;2022-10-17T08:28:29;102163.63;;;19.01;77.81
51781;BME280;37844;57.126;24.288;2022-10-17T08:31:05;102161.84;;;18.78;78.29
51781;BME280;37844;57.126;24.288;2022-10-17T08:33:30;102179.16;;;18.55;78.58
51781;BME280;37844;57.126;24.288;2022-10-17T08:35:58;102182.59;;;18.38;79.39
51781;BME280;37844;57.126;24.288;2022-10-17T08:38:24;102188.63;;;18.23;80.65
51781;BME280;37844;57.126;24.288;2022-10-17T08:40:49;102191.25;;;18.23;80.53
51781;BME280;37844;57.126;24.288;2022-10-17T08:43:27;102179.06;;;18.22;81.27
51781;BME280;37844;57.126;24.288;2022-10-17T08:46:02;102188.63;;;18.23;81.67
51781;BME280;37844;57.126;24.288;2022-10-17T08:48:32;102190.44;;;18.37;82.19
51781;BME280;37844;57.126;24.288;2022-10-17T08:51:12;102179.13;;;18.42;80.86
51781;BME280;37844;57.126;24.288;2022-10-17T08:56:42;102195.69;;;18.44;80.83
51781;BME280;37844;57.126;24.288;2022-10-17T08:59:28;102191.31;;;18.40;79.53
51781;BME280;37844;57.126;24.288;2022-10-17T09:05:09;102200.91;;;18.51;79.88
51781;BME280;37844;57.126;24.288;2022-10-17T09:18:15;102216.75;;;18.89;77.37
51781;BME280;37844;57.126;24.288;2022-10-17T09:20:52;102218.50;;;19.24;76.41
51781;BME280;37844;57.126;24.288;2022-10-17T09:23:30;102224.63;;;19.20;75.70
51781;BME280;37844;57.126;24.288;2022-10-17T09:25:58;102220.22;;;19.99;75.50
51781;BME280;37844;57.126;24.288;2022-10-17T09:28:33;102222.97;;;21.42;72.21
51781;BME280;37844;57.126;24.288;2022-10-17T09:36:04;102220.75;;;23.25;65.57
51781;BME280;37844;57.126;24.288;2022-10-17T09:38:39;102223.53;;;23.17;63.50
51781;BME280;37844;57.126;24.288;2022-10-17T09:41:10;102230.78;;;22.36;63.88
51781;BME280;37844;57.126;24.288;2022-10-17T09:43:38;102232.81;;;22.79;63.69
51781;BME280;37844;57.126;24.288;2022-10-17T09:46:36;102233.38;;;23.57;61.98
51781;BME280;37844;57.126;24.288;2022-10-17T09:49:07;102222.84;;;24.05;60.43
51781;BME280;37844;57.126;24.288;2022-10-17T09:51:36;102226.06;;;25.01;58.75
51781;BME280;37844;57.126;24.288;2022-10-17T09:54:06;102212.25;;;25.28;57.22
51781;BME280;37844;57.126;24.288;2022-10-17T09:57:03;102225.25;;;24.98;56.35
51781;BME280;37844;57.126;24.288;2022-10-17T09:59:42;102219.94;;;25.00;55.86
51781;BME280;37844;57.126;24.288;2022-10-17T10:05:14;102234.00;;;23.71;55.82
51781;BME280;37844;57.126;24.288;2022-10-17T10:07:40;102239.00;;;23.36;56.52
51781;BME280;37844;57.126;24.288;2022-10-17T10:10:24;102238.94;;;22.83;56.86
51781;BME280;37844;57.126;24.288;2022-10-17T10:15:41;102265.09;;;21.17;59.38
51781;BME280;37844;57.126;24.288;2022-10-17T10:21:09;102274.25;;;20.32;62.72
51781;BME280;37844;57.126;24.288;2022-10-17T10:23:36;102272.56;;;20.08;64.15
51781;BME280;37844;57.126;24.288;2022-10-17T10:26:19;102280.44;;;19.77;65.06
51781;BME280;37844;57.126;24.288;2022-10-17T10:28:55;102283.91;;;19.56;65.91
51781;BME280;37844;57.126;24.288;2022-10-17T10:34:00;102276.88;;;19.11;67.60
51781;BME280;37844;57.126;24.288;2022-10-17T10:37:02;102265.53;;;19.02;69.12
51781;BME280;37844;57.126;24.288;2022-10-17T10:41:55;102275.00;;;18.73;69.49
51781;BME280;37844;57.126;24.288;2022-10-17T10:44:24;102271.44;;;18.52;70.15
51781;BME280;37844;57.126;24.288;2022-10-17T10:49:41;102285.28;;;18.36;71.78
51781;BME280;37844;57.126;24.288;2022-10-17T10:52:11;102284.34;;;18.26;71.87
51781;BME280;37844;57.126;24.288;2022-10-17T10:54:49;102284.34;;;18.20;73.10
51781;BME280;37844;57.126;24.288;2022-10-17T10:57:19;102279.91;;;18.11;73.76
51781;BME280;37844;57.126;24.288;2022-10-17T10:59:55;102294.69;;;18.09;73.64
51781;BME280;37844;57.126;24.288;2022-10-17T11:02:36;102286.81;;;18.03;73.73
51781;BME280;37844;57.126;24.288;2022-10-17T11:05:21;102292.00;;;17.98;74.43
51781;BME280;37844;57.126;24.288;2022-10-17T11:08:08;102296.34;;;17.98;74.56
51781;BME280;37844;57.126;24.288;2022-10-17T11:13:30;102306.78;;;17.96;75.82
51781;BME280;37844;57.126;24.288;2022-10-17T11:18:54;102298.00;;;17.88;75.73
51781;BME280;37844;57.126;24.288;2022-10-17T11:24:30;102306.69;;;17.83;76.00
51781;BME280;37844;57.126;24.288;2022-10-17T11:27:00;102304.81;;;17.72;75.90
51781;BME280;37844;57.126;24.288;2022-10-17T11:29:31;102313.53;;;17.76;76.48
51781;BME280;37844;57.126;24.288;2022-10-17T11:32:02;102311.81;;;17.76;76.99
51781;BME280;37844;57.126;24.288;2022-10-17T11:34:32;102321.38;;;17.76;77.03
51781;BME280;37844;57.126;24.288;2022-10-17T11:37:04;102310.94;;;17.76;78.00
51781;BME280;37844;57.126;24.288;2022-10-17T11:42:11;102299.59;;;17.68;77.26
51781;BME280;37844;57.126;24.288;2022-10-17T11:44:40;102297.84;;;17.70;76.93
51781;BME280;37844;57.126;24.288;2022-10-17T11:47:48;102304.75;;;17.65;77.95
51781;BME280;37844;57.126;24.288;2022-10-17T11:50:34;102308.25;;;17.67;77.91
51781;BME280;37844;57.126;24.288;2022-10-17T11:53:27;102289.03;;;17.57;77.62
51781;BME280;37844;57.126;24.288;2022-10-17T11:55:57;102302.13;;;17.62;77.63
51781;BME280;37844;57.126;24.288;2022-10-17T11:58:46;102297.78;;;17.62;77.62
51781;BME280;37844;57.126;24.288;2022-10-17T12:04:03;102305.56;;;17.56;76.25
51781;BME280;37844;57.126;24.288;2022-10-17T12:07:09;102301.13;;;17.47;76.11
51781;BME280;37844;57.126;24.288;2022-10-17T12:09:51;102305.38;;;17.37;75.97
51781;BME280;37844;57.126;24.288;2022-10-17T12:12:28;102301.06;;;17.40;76.01
51781;BME280;37844;57.126;24.288;2022-10-17T12:15:25;102304.47;;;17.34;75.84
51781;BME280;37844;57.126;24.288;2022-10-17T12:17:45;102298.41;;;17.35;75.66
51781;BME280;37844;57.126;24.288;2022-10-17T12:25:24;102300.03;;;17.24;73.35
51781;BME280;37844;57.126;24.288;2022-10-17T12:30:32;102287.75;;;17.15;74.24
51781;BME280;37844;57.126;24.288;2022-10-17T12:35:38;102289.47;;;17.11;73.50
51781;BME280;37844;57.126;24.288;2022-10-17T12:48:11;102299.63;;;16.88;73.52
51781;BME280;37844;57.126;24.288;2022-10-17T12:51:08;102292.63;;;16.84;72.58
51781;BME280;37844;57.126;24.288;2022-10-17T12:56:08;102304.63;;;16.74;73.91
51781;BME280;37844;57.126;24.288;2022-10-17T12:58:34;102305.59;;;16.80;73.99
51781;BME280;37844;57.126;24.288;2022-10-17T13:01:01;102311.69;;;16.80;73.81
51781;BME280;37844;57.126;24.288;2022-10-17T13:03:32;102304.63;;;16.74;74.44
51781;BME280;37844;57.126;24.288;2022-10-17T13:06:04;102305.50;;;16.75;74.23
51781;BME280;37844;57.126;24.288;2022-10-17T13:08:33;102322.00;;;16.74;74.41
51781;BME280;37844;57.126;24.288;2022-10-17T13:11:01;102299.31;;;16.65;74.89
51781;BME280;37844;57.126;24.288;2022-10-17T13:13:41;102305.47;;;16.70;75.40
51781;BME280;37844;57.126;24.288;2022-10-17T13:18:54;102322.00;;;16.74;76.16
51781;BME280;37844;57.126;24.288;2022-10-17T13:21:19;102318.50;;;16.72;75.24
51781;BME280;37844;57.126;24.288;2022-10-17T13:23:46;102314.97;;;16.67;74.93
51781;BME280;37844;57.126;24.288;2022-10-17T13:26:27;102311.47;;;16.65;75.39
51781;BME280;37844;57.126;24.288;2022-10-17T13:29:03;102314.00;;;16.59;74.35
51781;BME280;37844;57.126;24.288;2022-10-17T13:31:34;102322.63;;;16.56;74.89
51781;BME280;37844;57.126;24.288;2022-10-17T13:34:03;102315.63;;;16.52;74.98
51781;BME280;37844;57.126;24.288;2022-10-17T13:36:30;102310.44;;;16.53;75.66
51781;BME280;37844;57.126;24.288;2022-10-17T13:38:59;102311.34;;;16.54;76.45
51781;BME280;37844;57.126;24.288;2022-10-17T13:41:30;102318.25;;;16.53;76.98
51781;BME280;37844;57.126;24.288;2022-10-17T13:43:59;102312.97;;;16.49;76.86
51781;BME280;37844;57.126;24.288;2022-10-17T13:46:29;102307.75;;;16.49;76.73
51781;BME280;37844;57.126;24.288;2022-10-17T13:48:57;102306.84;;;16.44;76.93
51781;BME280;37844;57.126;24.288;2022-10-17T13:51:25;102306.84;;;16.42;77.59
51781;BME280;37844;57.126;24.288;2022-10-17T13:53:52;102304.22;;;16.42;77.86
51781;BME280;37844;57.126;24.288;2022-10-17T13:56:22;102311.13;;;16.42;78.03
51781;BME280;37844;57.126;24.288;2022-10-17T14:01:16;102309.41;;;16.41;77.97
51781;BME280;37844;57.126;24.288;2022-10-17T14:03:44;102312.84;;;16.38;77.75
51781;BME280;37844;57.126;24.288;2022-10-17T14:11:36;102291.00;;;16.27;79.40
51781;BME280;37844;57.126;24.288;2022-10-17T14:14:05;102291.78;;;16.23;77.77
51781;BME280;37844;57.126;24.288;2022-10-17T14:16:37;102283.03;;;16.18;78.32
51781;BME280;37844;57.126;24.288;2022-10-17T14:19:05;102292.47;;;16.09;77.96
51781;BME280;37844;57.126;24.288;2022-10-17T14:21:39;102289.78;;;16.03;78.24
51781;BME280;37844;57.126;24.288;2022-10-17T14:24:31;102295.78;;;15.98;78.51
51781;BME280;37844;57.126;24.288;2022-10-17T14:26:59;102285.22;;;15.88;78.58
51781;BME280;37844;57.126;24.288;2022-10-17T14:29:31;102294.75;;;15.88;78.73
51781;BME280;37844;57.126;24.288;2022-10-17T14:32:14;102290.31;;;15.81;78.52
51781;BME280;37844;57.126;24.288;2022-10-17T14:34:41;102289.34;;;15.76;78.68
51781;BME280;37844;57.126;24.288;2022-10-17T14:37:15;102291.97;;;15.76;78.59
51781;BME280;37844;57.126;24.288;2022-10-17T14:39:48;102298.72;;;15.67;78.88
51781;BME280;37844;57.126;24.288;2022-10-17T14:42:18;102300.34;;;15.62;78.86
51781;BME280;37844;57.126;24.288;2022-10-17T14:44:48;102307.16;;;15.56;79.30
51781;BME280;37844;57.126;24.288;2022-10-17T14:47:19;102297.56;;;15.52;79.90
51781;BME280;37844;57.126;24.288;2022-10-17T14:49:49;102309.59;;;15.45;80.01
51781;BME280;37844;57.126;24.288;2022-10-17T14:54:41;102308.59;;;15.40;80.37
51781;BME280;37844;57.126;24.288;2022-10-17T14:59:58;102304.94;;;15.27;80.91
51781;BME280;37844;57.126;24.288;2022-10-17T15:02:25;102297.09;;;15.24;80.86
51781;BME280;37844;57.126;24.288;2022-10-17T15:04:52;102296.97;;;15.18;80.84
51781;BME280;37844;57.126;24.288;2022-10-17T15:07:17;102289.03;;;15.10;80.78